createdAt,value
2022-11-02T00:00:56.930Z,257
2022-11-02T00:03:08.134Z,256
2022-11-02T00:05:14.182Z,256
2022-11-02T00:07:19.966Z,256
2022-11-02T00:09:25.120Z,254
2022-11-02T00:11:30.749Z,256
2022-11-02T00:13:37.223Z,256
2022-11-02T00:15:42.922Z,255
2022-11-02T00:17:48.191Z,256
2022-11-02T00:19:53.495Z,257
2022-11-02T00:21:59.116Z,256
2022-11-02T00:24:05.892Z,256
2022-11-02T00:26:11.363Z,256
2022-11-02T00:28:17.846Z,255
2022-11-02T00:30:24.150Z,256
2022-11-02T00:32:30.638Z,256
2022-11-02T00:34:36.115Z,257
2022-11-02T00:36:44.678Z,259
2022-11-02T00:38:49.812Z,257
2022-11-02T00:40:55.892Z,258
2022-11-02T00:43:01.356Z,261
2022-11-02T00:45:06.785Z,256
2022-11-02T00:47:12.107Z,257
2022-11-02T00:49:19.591Z,256
2022-11-02T00:51:28.644Z,257
2022-11-02T00:53:34.218Z,255
2022-11-02T00:55:39.636Z,256
2022-11-02T00:57:46.846Z,256
2022-11-02T00:59:52.314Z,256
2022-11-02T01:01:58.402Z,257
2022-11-02T01:04:04.091Z,256
2022-11-02T01:06:12.497Z,257
2022-11-02T01:08:17.983Z,256
2022-11-02T01:10:28.680Z,257
2022-11-02T01:12:35.248Z,254
2022-11-02T01:14:40.779Z,255
2022-11-02T01:16:48.216Z,255
2022-11-02T01:18:54.716Z,254
2022-11-02T01:21:01.011Z,255
2022-11-02T01:23:11.574Z,254
2022-11-02T01:25:17.080Z,254
2022-11-02T01:27:26.597Z,256
2022-11-02T01:29:33.978Z,256
2022-11-02T01:31:39.250Z,256
2022-11-02T01:33:47.714Z,256
2022-11-02T01:35:53.102Z,260
2022-11-02T01:38:00.665Z,256
2022-11-02T01:40:07.091Z,255
2022-11-02T01:42:12.323Z,261
2022-11-02T01:44:17.919Z,258
2022-11-02T01:46:25.474Z,265
2022-11-02T01:48:30.842Z,257
2022-11-02T01:50:37.190Z,257
2022-11-02T01:52:43.916Z,256
2022-11-02T01:54:49.612Z,257
2022-11-02T01:56:54.929Z,259
2022-11-02T01:59:00.858Z,259
2022-11-02T02:01:11.727Z,258
2022-11-02T02:03:17.285Z,257
2022-11-02T02:05:22.893Z,256
2022-11-02T02:07:28.370Z,255
2022-11-02T02:09:33.551Z,257
2022-11-02T02:11:38.903Z,257
2022-11-02T02:13:45.037Z,260
2022-11-02T02:15:53.064Z,256
2022-11-02T02:18:00.605Z,256
2022-11-02T02:20:07.747Z,259
2022-11-02T02:22:13.012Z,256
2022-11-02T02:24:18.298Z,257
2022-11-02T02:26:23.792Z,257
2022-11-02T02:28:29.132Z,259
2022-11-02T02:30:34.468Z,256
2022-11-02T02:32:41.077Z,260
2022-11-02T02:34:46.433Z,260
2022-11-02T02:36:51.938Z,261
2022-11-02T02:38:57.561Z,259
2022-11-02T02:41:03.059Z,257
2022-11-02T02:43:08.441Z,257
2022-11-02T02:45:14.278Z,257
2022-11-02T02:47:20.861Z,264
2022-11-02T02:49:26.290Z,264
2022-11-02T02:51:32.785Z,259
2022-11-02T02:53:38.068Z,259
2022-11-02T02:55:43.562Z,257
2022-11-02T02:57:48.859Z,257
2022-11-02T02:59:55.193Z,258
2022-11-02T03:02:04.098Z,259
2022-11-02T03:04:10.091Z,259
2022-11-02T03:06:15.494Z,261
2022-11-02T03:08:22.736Z,260
2022-11-02T03:10:28.224Z,259
2022-11-02T03:12:38.563Z,258
2022-11-02T03:14:45.061Z,257
2022-11-02T03:16:50.565Z,259
2022-11-02T03:18:55.789Z,261
2022-11-02T03:21:01.430Z,259
2022-11-02T03:23:06.677Z,261
2022-11-02T03:25:11.934Z,261
2022-11-02T03:27:17.282Z,259
2022-11-02T03:29:29.486Z,259
2022-11-02T03:31:37.749Z,259
2022-11-02T03:33:43.228Z,258
2022-11-02T03:35:48.860Z,257
2022-11-02T03:37:54.912Z,257
2022-11-02T03:40:00.305Z,255
2022-11-02T03:42:05.767Z,257
2022-11-02T03:44:11.209Z,257
2022-11-02T03:46:16.813Z,257
2022-11-02T03:48:23.327Z,257
2022-11-02T03:50:28.656Z,256
2022-11-02T03:52:33.931Z,256
2022-11-02T03:54:39.472Z,257
2022-11-02T03:56:49.097Z,259
2022-11-02T03:58:54.495Z,258
2022-11-02T04:00:59.862Z,259
2022-11-02T04:03:07.345Z,261
2022-11-02T04:05:12.967Z,261
2022-11-02T04:07:19.700Z,259
2022-11-02T04:09:28.683Z,259
2022-11-02T04:11:33.835Z,259
2022-11-02T04:13:42.610Z,257
2022-11-02T04:15:47.945Z,257
2022-11-02T04:17:53.310Z,256
2022-11-02T04:19:59.725Z,257
2022-11-02T04:22:12.904Z,259
2022-11-02T04:24:18.462Z,257
2022-11-02T04:26:24.131Z,257
2022-11-02T04:28:29.430Z,256
2022-11-02T04:30:35.010Z,257
2022-11-02T04:32:43.726Z,254
2022-11-02T04:34:49.097Z,255
2022-11-02T04:36:54.788Z,256
2022-11-02T04:39:01.784Z,255
2022-11-02T04:41:08.142Z,255
2022-11-02T04:43:15.392Z,256
2022-11-02T04:45:22.057Z,256
2022-11-02T04:47:31.398Z,256
2022-11-02T04:49:40.456Z,257
2022-11-02T04:51:51.140Z,255
2022-11-02T04:53:56.910Z,256
2022-11-02T04:56:08.168Z,255
2022-11-02T04:58:15.961Z,254
2022-11-02T05:00:24.340Z,256
2022-11-02T05:02:34.009Z,256
2022-11-02T05:04:40.676Z,256
2022-11-02T05:06:47.983Z,256
2022-11-02T05:08:53.391Z,255
2022-11-02T05:10:58.832Z,256
2022-11-02T05:13:04.940Z,256
2022-11-02T05:15:11.417Z,257
2022-11-02T05:17:16.820Z,256
2022-11-02T05:19:27.755Z,257
2022-11-02T05:21:36.608Z,257
2022-11-02T05:23:42.166Z,256
2022-11-02T05:25:51.479Z,256
2022-11-02T05:27:57.248Z,255
2022-11-02T05:30:03.608Z,256
2022-11-02T05:32:15.005Z,256
2022-11-02T05:34:20.623Z,256
2022-11-02T05:36:26.108Z,257
2022-11-02T05:38:33.837Z,256
2022-11-02T05:40:39.433Z,256
2022-11-02T05:42:44.915Z,256
2022-11-02T05:44:55.834Z,257
2022-11-02T05:47:02.224Z,256
2022-11-02T05:49:07.566Z,271
2022-11-02T05:51:12.810Z,257
2022-11-02T05:53:19.190Z,257
2022-11-02T05:55:24.798Z,256
2022-11-02T05:57:30.246Z,256
2022-11-02T05:59:36.064Z,256
2022-11-02T06:01:43.788Z,255
2022-11-02T06:03:56.540Z,265
2022-11-02T06:06:02.130Z,264
2022-11-02T06:08:10.060Z,264
2022-11-02T06:10:19.309Z,264
2022-11-02T06:12:25.814Z,265
2022-11-02T06:14:36.963Z,256
2022-11-02T06:16:43.457Z,257
2022-11-02T06:18:49.075Z,258
2022-11-02T06:21:15.449Z,259
2022-11-02T06:23:25.536Z,256
2022-11-02T06:25:39.707Z,257
2022-11-02T06:27:48.475Z,257
2022-11-02T06:29:54.436Z,257
2022-11-02T06:32:05.948Z,257
2022-11-02T06:34:13.214Z,257
2022-11-02T06:36:18.652Z,257
2022-11-02T06:38:25.568Z,257
2022-11-02T06:40:31.151Z,256
2022-11-02T06:43:17.233Z,257
2022-11-02T06:45:24.053Z,256
2022-11-02T06:47:29.702Z,257
2022-11-02T06:49:35.148Z,256
2022-11-02T06:51:43.673Z,256
2022-11-02T06:53:51.156Z,256
2022-11-02T06:55:57.282Z,256
2022-11-02T06:58:02.728Z,257
2022-11-02T07:02:16.467Z,253
2022-11-02T07:04:22.703Z,256
2022-11-02T07:06:28.845Z,257
2022-11-02T07:08:35.237Z,258
2022-11-02T07:10:42.934Z,258
2022-11-02T07:12:48.864Z,259
2022-11-02T07:14:54.296Z,260
2022-11-02T07:16:59.853Z,257
2022-11-02T07:19:05.368Z,257
2022-11-02T07:21:14.079Z,259
2022-11-02T07:23:19.872Z,259
2022-11-02T07:25:26.195Z,259
2022-11-02T07:27:32.969Z,260
2022-11-02T07:29:38.372Z,261
2022-11-02T07:31:43.834Z,260
2022-11-02T07:33:49.781Z,259
2022-11-02T07:35:57.957Z,259
2022-11-02T07:38:04.216Z,266
2022-11-02T07:40:09.827Z,265
2022-11-02T07:42:19.328Z,264
2022-11-02T07:44:25.721Z,258
2022-11-02T07:46:31.587Z,257
2022-11-02T07:48:36.862Z,258
2022-11-02T07:50:42.796Z,257
2022-11-02T07:52:48.697Z,257
2022-11-02T07:54:54.250Z,259
2022-11-02T07:57:00.090Z,259
2022-11-02T07:59:06.266Z,257
2022-11-02T08:01:12.600Z,257
2022-11-02T08:03:18.745Z,257
2022-11-02T08:05:25.532Z,257
2022-11-02T08:07:30.925Z,257
2022-11-02T08:09:38.460Z,257
2022-11-02T08:11:44.064Z,257
2022-11-02T08:13:49.660Z,257
2022-11-02T08:15:56.086Z,255
2022-11-02T08:18:02.382Z,257
2022-11-02T08:20:09.083Z,257
2022-11-02T08:22:14.601Z,257
2022-11-02T08:24:20.467Z,257
2022-11-02T08:26:26.318Z,256
2022-11-02T08:28:32.950Z,261
2022-11-02T08:30:39.280Z,257
2022-11-02T08:32:44.668Z,257
2022-11-02T08:34:50.036Z,258
2022-11-02T08:36:55.717Z,257
2022-11-02T08:39:01.569Z,257
2022-11-02T08:41:07.293Z,256
2022-11-02T08:43:12.657Z,257
2022-11-02T08:45:18.150Z,257
2022-11-02T08:47:24.043Z,257
2022-11-02T08:49:30.047Z,256
2022-11-02T08:51:36.414Z,256
2022-11-02T08:53:51.360Z,255
2022-11-02T08:55:56.967Z,257
2022-11-02T08:58:04.878Z,256
2022-11-02T09:00:11.370Z,256
2022-11-02T09:02:20.266Z,258
2022-11-02T09:04:26.816Z,257
2022-11-02T09:06:34.114Z,256
2022-11-02T09:08:40.048Z,258
2022-11-02T09:11:06.595Z,259
2022-11-02T09:13:12.353Z,257
2022-11-02T09:15:18.129Z,256
2022-11-02T09:17:23.934Z,256
2022-11-02T09:19:29.296Z,255
2022-11-02T09:21:34.978Z,257
2022-11-02T09:23:40.427Z,262
2022-11-02T09:25:47.208Z,262
2022-11-02T09:27:57.965Z,262
2022-11-02T09:30:04.642Z,262
2022-11-02T09:32:10.484Z,256
2022-11-02T09:34:16.963Z,256
2022-11-02T09:36:22.826Z,256
2022-11-02T09:38:29.554Z,257
2022-11-02T09:40:34.996Z,257
2022-11-02T09:42:43.145Z,258
2022-11-02T09:44:48.981Z,256
2022-11-02T09:48:19.812Z,257
2022-11-02T09:50:33.305Z,256
2022-11-02T09:52:41.643Z,255
2022-11-02T09:54:47.529Z,257
2022-11-02T09:56:53.383Z,257
2022-11-02T09:58:59.908Z,257
2022-11-02T10:01:08.930Z,256
2022-11-02T10:03:14.789Z,256
2022-11-02T10:05:20.324Z,257
2022-11-02T10:07:27.954Z,255
2022-11-02T10:09:33.460Z,256
2022-11-02T10:11:40.162Z,255
2022-11-02T10:13:54.135Z,257
2022-11-02T10:16:02.149Z,257
2022-11-02T10:18:08.141Z,257
2022-11-02T10:20:13.697Z,257
2022-11-02T10:22:19.508Z,256
2022-11-02T10:24:25.146Z,257
2022-11-02T10:26:30.915Z,255
2022-11-02T10:28:37.160Z,255
2022-11-02T10:30:46.731Z,255
2022-11-02T10:32:52.466Z,256
2022-11-02T10:35:45.633Z,256
2022-11-02T10:38:30.767Z,255
2022-11-02T10:40:36.639Z,256
2022-11-02T10:42:42.481Z,256
2022-11-02T10:44:49.621Z,256
2022-11-02T10:46:56.194Z,256
2022-11-02T10:49:04.917Z,259
2022-11-02T10:51:11.358Z,259
2022-11-02T10:53:44.156Z,257
2022-11-02T10:55:50.541Z,257
2022-11-02T10:57:56.270Z,257
2022-11-02T11:00:01.978Z,255
2022-11-02T11:02:08.123Z,255
2022-11-02T11:04:13.860Z,252
2022-11-02T11:06:19.368Z,253
2022-11-02T11:08:24.776Z,254
2022-11-02T11:10:30.268Z,253
2022-11-02T11:12:35.970Z,255
2022-11-02T11:15:48.987Z,252
2022-11-02T11:21:46.799Z,258
2022-11-02T11:23:52.183Z,262
2022-11-02T11:25:58.503Z,259
2022-11-02T11:28:05.237Z,259
2022-11-02T11:30:11.096Z,261
2022-11-02T11:32:16.453Z,258
2022-11-02T11:34:22.054Z,259
2022-11-02T11:36:29.384Z,260
2022-11-02T11:38:35.356Z,260
2022-11-02T11:40:40.992Z,262
2022-11-02T11:42:46.602Z,261
2022-11-02T11:44:51.971Z,257
2022-11-02T11:47:00.533Z,262
2022-11-02T11:49:06.017Z,259
2022-11-02T11:51:11.399Z,261
2022-11-02T11:53:16.962Z,262
2022-11-02T11:55:22.792Z,259
2022-11-02T11:57:28.535Z,257
2022-11-02T11:59:34.328Z,256
2022-11-02T12:01:40.130Z,254
2022-11-02T12:03:46.212Z,253
2022-11-02T12:05:51.682Z,254
2022-11-02T12:07:59.169Z,254
2022-11-02T12:10:04.654Z,252
2022-11-02T12:12:10.721Z,250
2022-11-02T12:14:16.460Z,254
2022-11-02T12:16:21.992Z,249
2022-11-02T12:18:31.465Z,253
2022-11-02T12:20:37.626Z,237
2022-11-02T12:22:43.168Z,256
2022-11-02T12:24:48.685Z,256
2022-11-02T12:26:54.298Z,256
2022-11-02T12:28:59.834Z,256
2022-11-02T12:31:05.890Z,256
2022-11-02T12:33:11.870Z,255
2022-11-02T12:35:32.358Z,255
2022-11-02T12:37:44.404Z,252
2022-11-02T12:39:50.335Z,258
2022-11-02T12:41:55.704Z,257
2022-11-02T12:44:01.957Z,259
2022-11-02T12:46:08.193Z,259
2022-11-02T12:48:13.383Z,255
2022-11-02T12:50:18.907Z,254
2022-11-02T12:52:24.705Z,256
2022-11-02T12:54:30.337Z,257
2022-11-02T12:56:35.810Z,256
2022-11-02T12:58:41.223Z,256
2022-11-02T13:00:46.865Z,257
2022-11-02T13:02:52.729Z,256
2022-11-02T13:04:59.311Z,256
2022-11-02T13:07:05.373Z,246
2022-11-02T13:09:11.412Z,247
2022-11-02T13:11:17.975Z,246
2022-11-02T13:13:24.148Z,247
2022-11-02T13:15:31.726Z,262
2022-11-02T13:17:37.410Z,248
2022-11-02T13:19:42.656Z,248
2022-11-02T13:21:48.291Z,248
2022-11-02T13:23:54.640Z,252
2022-11-02T13:26:00.052Z,252
2022-11-02T13:28:09.395Z,249
2022-11-02T13:30:15.806Z,247
2022-11-02T13:32:21.158Z,253
2022-11-02T13:34:26.600Z,255
2022-11-02T13:36:31.946Z,268
2022-11-02T13:38:37.441Z,267
2022-11-02T13:40:43.988Z,267
2022-11-02T13:42:49.472Z,264
2022-11-02T13:44:54.926Z,265
2022-11-02T13:47:01.520Z,264
2022-11-02T13:49:07.371Z,247
2022-11-02T13:51:12.821Z,265
2022-11-02T13:53:18.542Z,265
2022-11-02T13:55:23.974Z,264
2022-11-02T13:57:29.805Z,261
2022-11-02T13:59:42.119Z,262
2022-11-02T14:01:49.599Z,264
2022-11-02T14:04:03.752Z,259
2022-11-02T14:06:10.116Z,257
2022-11-02T14:08:15.679Z,257
2022-11-02T14:10:21.454Z,256
2022-11-02T14:12:26.854Z,255
2022-11-02T14:14:32.494Z,256
2022-11-02T14:16:37.948Z,256
2022-11-02T14:18:44.113Z,256
2022-11-02T14:20:50.077Z,254
2022-11-02T14:22:56.438Z,255
2022-11-02T14:25:02.461Z,254
2022-11-02T14:27:08.472Z,256
2022-11-02T14:29:13.921Z,255
2022-11-02T14:31:19.233Z,256
2022-11-02T14:33:24.986Z,255
2022-11-02T14:35:30.551Z,257
2022-11-02T14:37:36.092Z,256
2022-11-02T14:39:41.515Z,255
2022-11-02T14:41:47.292Z,254
2022-11-02T14:43:53.913Z,256
2022-11-02T14:45:59.489Z,254
2022-11-02T14:48:11.030Z,255
2022-11-02T14:50:16.781Z,255
2022-11-02T14:52:22.565Z,254
2022-11-02T14:54:29.170Z,255
2022-11-02T14:56:34.961Z,254
2022-11-02T14:58:40.541Z,257
2022-11-02T15:00:48.119Z,256
2022-11-02T15:02:54.518Z,256
2022-11-02T15:05:00.941Z,254
2022-11-02T15:07:06.981Z,254
2022-11-02T15:09:13.044Z,253
2022-11-02T15:11:18.774Z,254
2022-11-02T15:13:24.818Z,255
2022-11-02T15:15:30.354Z,268
2022-11-02T15:17:36.689Z,264
2022-11-02T15:19:43.049Z,262
2022-11-02T15:21:49.136Z,264
2022-11-02T15:23:54.999Z,264
2022-11-02T15:26:01.350Z,260
2022-11-02T15:28:08.941Z,262
2022-11-02T15:30:16.311Z,262
2022-11-02T15:32:25.929Z,253
2022-11-02T15:34:31.934Z,256
2022-11-02T15:36:38.228Z,257
2022-11-02T15:38:43.974Z,257
2022-11-02T15:40:50.840Z,257
2022-11-02T15:42:56.946Z,259
2022-11-02T15:45:48.745Z,257
2022-11-02T15:48:03.333Z,259
2022-11-02T15:50:10.542Z,257
2022-11-02T15:52:16.856Z,253
2022-11-02T15:54:23.274Z,254
2022-11-02T15:56:29.519Z,256
2022-11-02T15:58:35.981Z,255
2022-11-02T16:00:42.637Z,255
2022-11-02T16:02:49.293Z,255
2022-11-02T16:04:55.852Z,254
2022-11-02T16:07:02.199Z,255
2022-11-02T16:09:10.086Z,255
2022-11-02T16:11:16.250Z,256
2022-11-02T16:13:21.805Z,254
2022-11-02T16:15:28.096Z,255
2022-11-02T16:17:34.835Z,253
2022-11-02T16:19:41.249Z,254
2022-11-02T16:21:47.617Z,254
2022-11-02T16:23:55.009Z,254
2022-11-02T16:26:01.222Z,248
2022-11-02T16:28:08.008Z,247
2022-11-02T16:30:14.449Z,257
2022-11-02T16:32:21.167Z,254
2022-11-02T16:34:27.130Z,255
2022-11-02T16:36:32.835Z,254
2022-11-02T16:38:39.787Z,255
2022-11-02T16:40:46.792Z,253
2022-11-02T16:42:54.534Z,254
2022-11-02T16:45:01.352Z,254
2022-11-02T16:47:07.921Z,253
2022-11-02T16:49:14.007Z,258
2022-11-02T16:51:20.935Z,254
2022-11-02T16:53:27.605Z,254
2022-11-02T16:55:33.204Z,253
2022-11-02T16:57:40.360Z,253
2022-11-02T16:59:47.276Z,255
2022-11-02T17:01:53.843Z,253
2022-11-02T17:04:03.323Z,256
2022-11-02T17:06:15.018Z,255
2022-11-02T17:08:21.918Z,248
2022-11-02T17:10:29.276Z,257
2022-11-02T17:12:36.568Z,247
2022-11-02T17:14:46.810Z,253
2022-11-02T17:16:54.387Z,253
2022-11-02T17:19:03.698Z,248
2022-11-02T17:21:10.843Z,266
2022-11-02T17:23:19.131Z,264
2022-11-02T17:25:28.069Z,262
2022-11-02T17:27:44.762Z,256
2022-11-02T17:29:53.986Z,253
2022-11-02T17:32:01.824Z,255
2022-11-02T17:34:08.606Z,254
2022-11-02T17:36:15.171Z,253
2022-11-02T17:38:21.529Z,238
2022-11-02T17:40:27.860Z,249
2022-11-02T17:42:36.158Z,243
2022-11-02T17:44:45.105Z,249
2022-11-02T17:46:52.301Z,247
2022-11-02T17:49:00.293Z,247
2022-11-02T17:51:11.429Z,252
2022-11-02T17:53:19.542Z,253
2022-11-02T17:55:29.047Z,254
2022-11-02T17:57:36.639Z,264
2022-11-02T17:59:52.312Z,255
2022-11-02T18:02:01.022Z,261
2022-11-02T18:04:09.413Z,254
2022-11-02T18:06:17.647Z,253
2022-11-02T18:08:24.863Z,254
2022-11-02T18:10:32.855Z,262
2022-11-02T18:12:41.305Z,261
2022-11-02T18:14:50.961Z,261
2022-11-02T18:16:59.717Z,261
2022-11-02T18:19:10.734Z,258
2022-11-02T18:21:25.030Z,264
2022-11-02T18:23:33.003Z,265
2022-11-02T18:25:41.741Z,262
2022-11-02T18:27:49.654Z,254
2022-11-02T18:30:06.465Z,260
2022-11-02T18:32:15.664Z,261
2022-11-02T18:34:22.851Z,255
2022-11-02T18:36:32.545Z,262
2022-11-02T18:38:41.450Z,259
2022-11-02T18:40:51.663Z,259
2022-11-02T18:43:03.988Z,257
2022-11-02T18:45:15.358Z,257
2022-11-02T18:47:29.177Z,257
2022-11-02T18:49:38.593Z,259
2022-11-02T18:51:46.067Z,259
2022-11-02T18:53:55.632Z,257
2022-11-02T18:56:04.979Z,257
2022-11-02T18:58:16.761Z,257
2022-11-02T19:00:24.646Z,256
2022-11-02T19:02:34.258Z,255
2022-11-02T19:04:42.148Z,255
2022-11-02T19:06:58.060Z,253
2022-11-02T19:09:07.029Z,259
2022-11-02T19:11:19.328Z,265
2022-11-02T19:13:31.059Z,255
2022-11-02T19:15:47.917Z,255
2022-11-02T19:17:56.071Z,256
2022-11-02T19:20:08.176Z,255
2022-11-02T19:22:17.059Z,254
2022-11-02T19:24:25.630Z,254
2022-11-02T19:26:38.505Z,254
2022-11-02T19:28:49.906Z,254
2022-11-02T19:31:02.898Z,254
2022-11-02T19:33:12.063Z,255
2022-11-02T19:35:20.713Z,254
2022-11-02T19:37:37.188Z,255
2022-11-02T19:39:47.928Z,256
2022-11-02T19:41:56.785Z,255
2022-11-02T19:44:10.127Z,255
2022-11-02T19:46:23.063Z,255
2022-11-02T19:48:35.849Z,256
2022-11-02T19:50:53.143Z,257
2022-11-02T19:53:04.755Z,256
2022-11-02T19:55:19.738Z,256
2022-11-02T19:57:37.024Z,255
2022-11-02T19:59:46.017Z,256
2022-11-02T20:01:56.371Z,255
2022-11-02T20:04:08.572Z,255
2022-11-02T20:06:29.323Z,254
2022-11-02T20:08:58.997Z,254
2022-11-02T20:11:07.476Z,254
2022-11-02T20:13:15.758Z,254
2022-11-02T20:15:27.279Z,253
2022-11-02T20:18:19.985Z,252
2022-11-02T20:20:30.758Z,252
2022-11-02T20:22:40.257Z,252
2022-11-02T20:24:49.104Z,252
2022-11-02T20:26:58.872Z,253
2022-11-02T20:29:08.647Z,255
2022-11-02T20:31:27.618Z,255
2022-11-02T20:33:37.750Z,255
2022-11-02T20:35:48.080Z,253
2022-11-02T20:37:58.603Z,249
2022-11-02T20:40:06.517Z,253
2022-11-02T20:42:16.910Z,259
2022-11-02T20:44:29.686Z,253
2022-11-02T20:46:55.386Z,254
2022-11-02T20:50:00.564Z,256
2022-11-02T20:52:08.826Z,255
2022-11-02T20:54:16.986Z,256
2022-11-02T20:56:26.582Z,255
2022-11-02T20:58:34.226Z,252
2022-11-02T21:00:43.895Z,254
2022-11-02T21:02:52.474Z,248
2022-11-02T21:04:58.906Z,253
2022-11-02T21:07:06.981Z,249
2022-11-02T21:09:15.681Z,254
2022-11-02T21:11:22.262Z,261
2022-11-02T21:13:30.461Z,257
2022-11-02T21:15:36.135Z,252
2022-11-02T21:17:41.946Z,247
2022-11-02T21:19:51.668Z,261
2022-11-02T21:22:08.060Z,257
2022-11-02T21:24:14.689Z,254
2022-11-02T21:26:21.505Z,257
2022-11-02T21:28:28.738Z,257
2022-11-02T21:30:34.909Z,253
2022-11-02T21:32:44.926Z,253
2022-11-02T21:34:50.970Z,253
2022-11-02T21:36:56.795Z,249
2022-11-02T21:39:03.056Z,247
2022-11-02T21:41:08.959Z,252
2022-11-02T21:43:14.643Z,253
2022-11-02T21:45:26.607Z,252
2022-11-02T21:47:32.182Z,266
2022-11-02T21:49:37.995Z,267
2022-11-02T21:51:43.718Z,267
2022-11-02T21:53:49.578Z,267
2022-11-02T21:55:54.999Z,264
2022-11-02T21:58:00.960Z,262
2022-11-02T22:00:07.566Z,262
2022-11-02T22:02:13.893Z,261
2022-11-02T22:04:19.998Z,262
2022-11-02T22:06:33.312Z,259
2022-11-02T22:08:39.139Z,261
2022-11-02T22:10:44.598Z,261
2022-11-02T22:12:50.088Z,259
2022-11-02T22:14:56.100Z,260
2022-11-02T22:17:04.698Z,261
2022-11-02T22:19:21.276Z,261
2022-11-02T22:21:26.791Z,260
2022-11-02T22:23:33.319Z,261
2022-11-02T22:25:38.825Z,261
2022-11-02T22:27:44.050Z,259
2022-11-02T22:29:49.920Z,259
2022-11-02T22:31:55.284Z,261
2022-11-02T22:34:00.901Z,261
2022-11-02T22:36:06.216Z,258
2022-11-02T22:38:11.745Z,258
2022-11-02T22:40:18.002Z,259
2022-11-02T22:42:23.403Z,261
2022-11-02T22:44:28.682Z,261
2022-11-02T22:46:34.053Z,261
2022-11-02T22:48:39.598Z,261
2022-11-02T22:50:44.917Z,260
2022-11-02T22:52:50.254Z,257
2022-11-02T22:54:55.605Z,259
2022-11-02T22:57:00.881Z,258
2022-11-02T22:59:06.162Z,257
2022-11-02T23:01:12.078Z,257
2022-11-02T23:03:27.604Z,258
2022-11-02T23:05:33.463Z,261
2022-11-02T23:07:40.266Z,258
2022-11-02T23:09:45.736Z,258
2022-11-02T23:11:51.090Z,257
2022-11-02T23:13:56.568Z,259
2022-11-02T23:16:02.089Z,259
2022-11-02T23:18:07.316Z,259
2022-11-02T23:20:12.799Z,259
2022-11-02T23:22:18.186Z,260
2022-11-02T23:24:23.343Z,259
2022-11-02T23:26:28.660Z,261
2022-11-02T23:28:34.231Z,259
2022-11-02T23:30:39.671Z,258
2022-11-02T23:32:44.902Z,253
2022-11-02T23:34:50.197Z,252
2022-11-02T23:36:55.337Z,257
2022-11-02T23:39:00.595Z,257
2022-11-02T23:41:05.811Z,246
2022-11-02T23:43:13.103Z,237
2022-11-02T23:45:18.712Z,236
2022-11-02T23:47:24.046Z,246
2022-11-02T23:49:29.810Z,254
2022-11-02T23:51:35.284Z,254
2022-11-02T23:53:40.622Z,257
2022-11-02T23:55:45.585Z,261
2022-11-02T23:57:50.627Z,265
2022-11-02T23:59:55.964Z,261
